sensor_id;sensor_type;location;lat;lon;timestamp;temperature;humidity
40676;DHT22;26359;48.750;9.314;2023-08-06T00:00:09;16.20;99.90
40676;DHT22;26359;48.750;9.314;2023-08-06T00:02:35;16.10;99.90
40676;DHT22;26359;48.750;9.314;2023-08-06T00:05:01;16.00;99.90
40676;DHT22;26359;48.750;9.314;2023-08-06T00:07:26;16.10;99.90
40676;DHT22;26359;48.750;9.314;2023-08-06T00:09:52;16.10;99.90
40676;DHT22;26359;48.750;9.314;2023-08-06T00:12:18;16.00;99.90
40676;DHT22;26359;48.750;9.314;2023-08-06T00:14:43;16.00;99.90
40676;DHT22;26359;48.750;9.314;2023-08-06T00:17:09;16.00;99.90
40676;DHT22;26359;48.750;9.314;2023-08-06T00:19:35;16.00;99.90
40676;DHT22;26359;48.750;9.314;2023-08-06T00:22:00;15.80;99.90
40676;DHT22;26359;48.750;9.314;2023-08-06T00:24:27;15.90;99.90
40676;DHT22;26359;48.750;9.314;2023-08-06T00:26:53;15.90;99.90
40676;DHT22;26359;48.750;9.314;2023-08-06T00:29:18;15.80;99.90
40676;DHT22;26359;48.750;9.314;2023-08-06T00:31:44;15.90;99.90
40676;DHT22;26359;48.750;9.314;2023-08-06T00:34:09;15.90;99.90
40676;DHT22;26359;48.750;9.314;2023-08-06T00:36:35;15.90;99.90
40676;DHT22;26359;48.750;9.314;2023-08-06T00:39:00;15.70;99.90
40676;DHT22;26359;48.750;9.314;2023-08-06T00:41:26;15.80;99.90
40676;DHT22;26359;48.750;9.314;2023-08-06T00:43:51;15.70;99.90
40676;DHT22;26359;48.750;9.314;2023-08-06T00:46:17;15.70;99.90
40676;DHT22;26359;48.750;9.314;2023-08-06T00:48:42;15.70;99.90
40676;DHT22;26359;48.750;9.314;2023-08-06T00:51:10;15.60;99.90
40676;DHT22;26359;48.750;9.314;2023-08-06T00:53:36;15.60;99.90
40676;DHT22;26359;48.750;9.314;2023-08-06T00:56:02;15.70;99.90
40676;DHT22;26359;48.750;9.314;2023-08-06T00:58:28;15.60;99.90
40676;DHT22;26359;48.750;9.314;2023-08-06T01:00:53;15.60;99.90
40676;DHT22;26359;48.750;9.314;2023-08-06T01:03:19;15.70;99.90
40676;DHT22;26359;48.750;9.314;2023-08-06T01:05:44;15.70;99.90
40676;DHT22;26359;48.750;9.314;2023-08-06T01:08:21;15.50;99.90
40676;DHT22;26359;48.750;9.314;2023-08-06T01:11:14;15.50;99.90
40676;DHT22;26359;48.750;9.314;2023-08-06T01:13:47;15.60;99.90
40676;DHT22;26359;48.750;9.314;2023-08-06T01:16:18;15.60;99.90
40676;DHT22;26359;48.750;9.314;2023-08-06T01:18:44;15.40;99.90
40676;DHT22;26359;48.750;9.314;2023-08-06T01:21:13;15.40;99.90
40676;DHT22;26359;48.750;9.314;2023-08-06T01:23:39;15.50;99.90
40676;DHT22;26359;48.750;9.314;2023-08-06T01:26:18;15.50;99.90
40676;DHT22;26359;48.750;9.314;2023-08-06T01:29:07;15.40;99.90
40676;DHT22;26359;48.750;9.314;2023-08-06T01:31:37;15.30;99.90
40676;DHT22;26359;48.750;9.314;2023-08-06T01:34:05;15.40;99.90
40676;DHT22;26359;48.750;9.314;2023-08-06T01:36:31;15.40;99.90
40676;DHT22;26359;48.750;9.314;2023-08-06T01:38:57;15.30;99.90
40676;DHT22;26359;48.750;9.314;2023-08-06T01:41:23;15.30;99.90
40676;DHT22;26359;48.750;9.314;2023-08-06T01:43:48;15.50;99.90
40676;DHT22;26359;48.750;9.314;2023-08-06T01:46:14;15.50;99.90
40676;DHT22;26359;48.750;9.314;2023-08-06T01:48:39;15.50;99.90
40676;DHT22;26359;48.750;9.314;2023-08-06T01:51:05;15.40;99.90
40676;DHT22;26359;48.750;9.314;2023-08-06T01:53:31;15.30;99.90
40676;DHT22;26359;48.750;9.314;2023-08-06T01:55:57;15.30;99.90
40676;DHT22;26359;48.750;9.314;2023-08-06T01:58:23;15.30;99.90
40676;DHT22;26359;48.750;9.314;2023-08-06T02:00:48;15.20;99.90
40676;DHT22;26359;48.750;9.314;2023-08-06T02:03:14;15.30;99.90
40676;DHT22;26359;48.750;9.314;2023-08-06T02:05:40;15.30;99.90
40676;DHT22;26359;48.750;9.314;2023-08-06T02:08:05;15.30;99.90
40676;DHT22;26359;48.750;9.314;2023-08-06T02:10:31;15.30;99.90
40676;DHT22;26359;48.750;9.314;2023-08-06T02:12:56;15.30;99.90
40676;DHT22;26359;48.750;9.314;2023-08-06T02:15:22;15.10;99.90
40676;DHT22;26359;48.750;9.314;2023-08-06T02:17:47;15.10;99.90
40676;DHT22;26359;48.750;9.314;2023-08-06T02:20:13;15.10;99.90
40676;DHT22;26359;48.750;9.314;2023-08-06T02:22:38;15.20;99.90
40676;DHT22;26359;48.750;9.314;2023-08-06T02:25:04;15.00;99.90
40676;DHT22;26359;48.750;9.314;2023-08-06T02:27:30;15.00;99.90
40676;DHT22;26359;48.750;9.314;2023-08-06T02:29:55;15.00;99.90
40676;DHT22;26359;48.750;9.314;2023-08-06T02:32:21;15.00;99.90
40676;DHT22;26359;48.750;9.314;2023-08-06T02:34:46;15.00;99.90
40676;DHT22;26359;48.750;9.314;2023-08-06T02:37:12;14.90;99.90
40676;DHT22;26359;48.750;9.314;2023-08-06T02:39:37;14.90;99.90
40676;DHT22;26359;48.750;9.314;2023-08-06T02:42:06;15.00;99.90
40676;DHT22;26359;48.750;9.314;2023-08-06T02:44:31;14.80;99.90
40676;DHT22;26359;48.750;9.314;2023-08-06T02:46:57;14.80;99.90
40676;DHT22;26359;48.750;9.314;2023-08-06T02:49:22;14.80;99.90
40676;DHT22;26359;48.750;9.314;2023-08-06T02:51:48;14.70;99.90
40676;DHT22;26359;48.750;9.314;2023-08-06T02:54:13;14.80;99.90
40676;DHT22;26359;48.750;9.314;2023-08-06T02:56:43;14.80;99.90
40676;DHT22;26359;48.750;9.314;2023-08-06T02:59:10;14.70;99.90
40676;DHT22;26359;48.750;9.314;2023-08-06T03:01:35;14.70;99.90
40676;DHT22;26359;48.750;9.314;2023-08-06T03:04:01;14.80;99.90
40676;DHT22;26359;48.750;9.314;2023-08-06T03:06:27;14.60;99.90
40676;DHT22;26359;48.750;9.314;2023-08-06T03:08:52;14.70;99.90
40676;DHT22;26359;48.750;9.314;2023-08-06T03:11:18;14.70;99.90
40676;DHT22;26359;48.750;9.314;2023-08-06T03:13:43;14.60;99.90
40676;DHT22;26359;48.750;9.314;2023-08-06T03:16:09;14.50;99.90
40676;DHT22;26359;48.750;9.314;2023-08-06T03:18:34;14.50;99.90
40676;DHT22;26359;48.750;9.314;2023-08-06T03:21:00;14.50;99.90
40676;DHT22;26359;48.750;9.314;2023-08-06T03:23:25;14.60;99.90
40676;DHT22;26359;48.750;9.314;2023-08-06T03:25:51;14.50;99.90
40676;DHT22;26359;48.750;9.314;2023-08-06T03:28:16;14.60;99.90
40676;DHT22;26359;48.750;9.314;2023-08-06T03:30:42;14.60;99.90
40676;DHT22;26359;48.750;9.314;2023-08-06T03:33:07;14.60;99.90
40676;DHT22;26359;48.750;9.314;2023-08-06T03:35:33;14.60;99.90
40676;DHT22;26359;48.750;9.314;2023-08-06T03:37:59;14.60;99.90
40676;DHT22;26359;48.750;9.314;2023-08-06T03:40:24;14.60;99.90
40676;DHT22;26359;48.750;9.314;2023-08-06T03:42:50;14.70;99.90
40676;DHT22;26359;48.750;9.314;2023-08-06T03:45:15;14.70;99.90
40676;DHT22;26359;48.750;9.314;2023-08-06T03:47:41;14.70;99.90
40676;DHT22;26359;48.750;9.314;2023-08-06T03:50:06;14.70;99.90
40676;DHT22;26359;48.750;9.314;2023-08-06T03:52:32;14.60;99.90
40676;DHT22;26359;48.750;9.314;2023-08-06T03:54:58;14.60;99.90
40676;DHT22;26359;48.750;9.314;2023-08-06T03:57:23;14.70;99.90
40676;DHT22;26359;48.750;9.314;2023-08-06T03:59:49;14.60;99.90
40676;DHT22;26359;48.750;9.314;2023-08-06T04:02:14;14.70;99.90
40676;DHT22;26359;48.750;9.314;2023-08-06T04:04:40;14.60;99.90
40676;DHT22;26359;48.750;9.314;2023-08-06T04:07:05;14.70;99.90
40676;DHT22;26359;48.750;9.314;2023-08-06T04:09:31;14.70;99.90
40676;DHT22;26359;48.750;9.314;2023-08-06T04:11:56;14.70;99.90
40676;DHT22;26359;48.750;9.314;2023-08-06T04:14:24;14.60;99.90
40676;DHT22;26359;48.750;9.314;2023-08-06T04:16:49;14.70;99.90
40676;DHT22;26359;48.750;9.314;2023-08-06T04:19:15;14.70;99.90
40676;DHT22;26359;48.750;9.314;2023-08-06T04:21:40;14.70;99.90
40676;DHT22;26359;48.750;9.314;2023-08-06T04:24:06;14.60;99.90
40676;DHT22;26359;48.750;9.314;2023-08-06T04:26:31;14.70;99.90
40676;DHT22;26359;48.750;9.314;2023-08-06T04:28:57;14.70;99.90
40676;DHT22;26359;48.750;9.314;2023-08-06T04:31:22;14.70;99.90
40676;DHT22;26359;48.750;9.314;2023-08-06T04:33:48;14.70;99.90
40676;DHT22;26359;48.750;9.314;2023-08-06T04:36:14;14.60;99.90
40676;DHT22;26359;48.750;9.314;2023-08-06T04:38:39;14.70;99.90
40676;DHT22;26359;48.750;9.314;2023-08-06T04:41:09;14.80;99.90
40676;DHT22;26359;48.750;9.314;2023-08-06T04:43:35;14.90;99.90
40676;DHT22;26359;48.750;9.314;2023-08-06T04:46:00;14.70;99.90
40676;DHT22;26359;48.750;9.314;2023-08-06T04:48:26;14.80;99.90
40676;DHT22;26359;48.750;9.314;2023-08-06T04:50:51;14.80;99.90
40676;DHT22;26359;48.750;9.314;2023-08-06T04:53:17;14.90;99.90
40676;DHT22;26359;48.750;9.314;2023-08-06T04:55:43;14.80;99.90
40676;DHT22;26359;48.750;9.314;2023-08-06T04:58:12;14.90;99.90
40676;DHT22;26359;48.750;9.314;2023-08-06T05:00:38;14.80;99.90
40676;DHT22;26359;48.750;9.314;2023-08-06T05:03:05;14.80;99.90
40676;DHT22;26359;48.750;9.314;2023-08-06T05:05:31;14.70;99.90
40676;DHT22;26359;48.750;9.314;2023-08-06T05:07:57;14.80;99.90
40676;DHT22;26359;48.750;9.314;2023-08-06T05:10:25;14.60;99.90
40676;DHT22;26359;48.750;9.314;2023-08-06T05:12:50;14.50;99.90
40676;DHT22;26359;48.750;9.314;2023-08-06T05:15:16;14.60;99.90
40676;DHT22;26359;48.750;9.314;2023-08-06T05:17:41;14.70;99.90
40676;DHT22;26359;48.750;9.314;2023-08-06T05:20:07;14.60;99.90
40676;DHT22;26359;48.750;9.314;2023-08-06T05:22:33;14.80;99.90
40676;DHT22;26359;48.750;9.314;2023-08-06T05:24:59;14.70;99.90
40676;DHT22;26359;48.750;9.314;2023-08-06T05:27:24;14.80;99.90
40676;DHT22;26359;48.750;9.314;2023-08-06T05:29:50;14.80;99.90
40676;DHT22;26359;48.750;9.314;2023-08-06T05:32:15;14.80;99.90
40676;DHT22;26359;48.750;9.314;2023-08-06T05:34:41;14.90;99.90
40676;DHT22;26359;48.750;9.314;2023-08-06T05:37:09;14.90;99.90
40676;DHT22;26359;48.750;9.314;2023-08-06T05:39:34;14.90;99.90
40676;DHT22;26359;48.750;9.314;2023-08-06T05:42:00;14.80;99.90
40676;DHT22;26359;48.750;9.314;2023-08-06T05:44:25;14.70;99.90
40676;DHT22;26359;48.750;9.314;2023-08-06T05:46:51;14.90;99.90
40676;DHT22;26359;48.750;9.314;2023-08-06T05:49:18;14.90;99.90
40676;DHT22;26359;48.750;9.314;2023-08-06T05:51:44;15.10;99.90
40676;DHT22;26359;48.750;9.314;2023-08-06T05:54:09;15.10;99.90
40676;DHT22;26359;48.750;9.314;2023-08-06T05:56:35;15.10;99.90
40676;DHT22;26359;48.750;9.314;2023-08-06T05:59:00;15.00;99.90
40676;DHT22;26359;48.750;9.314;2023-08-06T06:01:26;15.30;99.90
40676;DHT22;26359;48.750;9.314;2023-08-06T06:03:51;15.20;99.90
40676;DHT22;26359;48.750;9.314;2023-08-06T06:06:17;15.30;99.90
40676;DHT22;26359;48.750;9.314;2023-08-06T06:08:44;15.20;99.90
40676;DHT22;26359;48.750;9.314;2023-08-06T06:11:10;15.10;99.90
40676;DHT22;26359;48.750;9.314;2023-08-06T06:13:35;15.00;99.90
40676;DHT22;26359;48.750;9.314;2023-08-06T06:16:01;15.10;99.90
40676;DHT22;26359;48.750;9.314;2023-08-06T06:18:26;15.00;99.90
40676;DHT22;26359;48.750;9.314;2023-08-06T06:20:52;15.10;99.90
40676;DHT22;26359;48.750;9.314;2023-08-06T06:23:17;15.10;99.90
40676;DHT22;26359;48.750;9.314;2023-08-06T06:25:44;15.00;99.90
40676;DHT22;26359;48.750;9.314;2023-08-06T06:28:12;15.00;99.90
40676;DHT22;26359;48.750;9.314;2023-08-06T06:30:37;15.20;99.90
40676;DHT22;26359;48.750;9.314;2023-08-06T06:33:03;15.20;99.90
40676;DHT22;26359;48.750;9.314;2023-08-06T06:35:28;15.20;99.90
40676;DHT22;26359;48.750;9.314;2023-08-06T06:37:54;15.10;99.90
40676;DHT22;26359;48.750;9.314;2023-08-06T06:40:19;15.30;99.90
40676;DHT22;26359;48.750;9.314;2023-08-06T06:42:45;15.10;99.90
40676;DHT22;26359;48.750;9.314;2023-08-06T06:45:10;15.10;99.90
40676;DHT22;26359;48.750;9.314;2023-08-06T06:47:36;15.10;99.90
40676;DHT22;26359;48.750;9.314;2023-08-06T06:50:01;15.20;99.90
40676;DHT22;26359;48.750;9.314;2023-08-06T06:52:27;15.10;99.90
40676;DHT22;26359;48.750;9.314;2023-08-06T06:54:52;15.20;99.90
40676;DHT22;26359;48.750;9.314;2023-08-06T06:57:18;15.30;99.90
40676;DHT22;26359;48.750;9.314;2023-08-06T06:59:43;15.20;99.90
40676;DHT22;26359;48.750;9.314;2023-08-06T07:02:09;15.20;99.90
40676;DHT22;26359;48.750;9.314;2023-08-06T07:04:34;15.20;99.90
40676;DHT22;26359;48.750;9.314;2023-08-06T07:07:00;15.10;99.90
40676;DHT22;26359;48.750;9.314;2023-08-06T07:09:26;15.10;99.90
40676;DHT22;26359;48.750;9.314;2023-08-06T07:11:52;15.10;99.90
40676;DHT22;26359;48.750;9.314;2023-08-06T07:14:17;15.20;99.90
40676;DHT22;26359;48.750;9.314;2023-08-06T07:16:43;15.10;99.90
40676;DHT22;26359;48.750;9.314;2023-08-06T07:19:08;15.00;99.90
40676;DHT22;26359;48.750;9.314;2023-08-06T07:21:34;15.20;99.90
40676;DHT22;26359;48.750;9.314;2023-08-06T07:23:59;15.10;99.90
40676;DHT22;26359;48.750;9.314;2023-08-06T07:26:25;15.10;99.90
40676;DHT22;26359;48.750;9.314;2023-08-06T07:28:51;15.10;99.90
40676;DHT22;26359;48.750;9.314;2023-08-06T07:31:16;15.00;99.90
40676;DHT22;26359;48.750;9.314;2023-08-06T07:33:42;14.90;99.90
40676;DHT22;26359;48.750;9.314;2023-08-06T07:36:11;15.00;99.90
40676;DHT22;26359;48.750;9.314;2023-08-06T07:38:37;14.90;99.90
40676;DHT22;26359;48.750;9.314;2023-08-06T07:41:03;15.00;99.90
40676;DHT22;26359;48.750;9.314;2023-08-06T07:43:29;15.00;99.90
40676;DHT22;26359;48.750;9.314;2023-08-06T07:46:00;15.00;99.90
40676;DHT22;26359;48.750;9.314;2023-08-06T07:48:26;14.80;99.90
40676;DHT22;26359;48.750;9.314;2023-08-06T07:50:53;14.80;99.90
40676;DHT22;26359;48.750;9.314;2023-08-06T07:53:20;14.80;99.90
40676;DHT22;26359;48.750;9.314;2023-08-06T07:55:51;14.80;99.90
40676;DHT22;26359;48.750;9.314;2023-08-06T07:58:18;15.00;99.90
40676;DHT22;26359;48.750;9.314;2023-08-06T08:00:43;15.00;99.90
40676;DHT22;26359;48.750;9.314;2023-08-06T08:03:14;15.10;99.90
40676;DHT22;26359;48.750;9.314;2023-08-06T08:05:40;15.30;99.90
40676;DHT22;26359;48.750;9.314;2023-08-06T08:08:06;15.00;99.90
40676;DHT22;26359;48.750;9.314;2023-08-06T08:10:32;15.10;99.90
40676;DHT22;26359;48.750;9.314;2023-08-06T08:12:58;15.10;99.90
40676;DHT22;26359;48.750;9.314;2023-08-06T08:15:24;15.20;99.90
40676;DHT22;26359;48.750;9.314;2023-08-06T08:17:52;15.30;99.90
40676;DHT22;26359;48.750;9.314;2023-08-06T08:20:17;15.30;99.90
40676;DHT22;26359;48.750;9.314;2023-08-06T08:22:43;15.40;99.90
40676;DHT22;26359;48.750;9.314;2023-08-06T08:25:08;15.60;99.90
40676;DHT22;26359;48.750;9.314;2023-08-06T08:27:34;15.70;99.90
40676;DHT22;26359;48.750;9.314;2023-08-06T08:30:00;15.80;99.90
40676;DHT22;26359;48.750;9.314;2023-08-06T08:32:25;15.90;99.90
40676;DHT22;26359;48.750;9.314;2023-08-06T08:34:51;15.80;99.90
40676;DHT22;26359;48.750;9.314;2023-08-06T08:37:16;15.90;99.90
40676;DHT22;26359;48.750;9.314;2023-08-06T08:39:42;15.70;99.90
40676;DHT22;26359;48.750;9.314;2023-08-06T08:42:08;15.70;99.90
40676;DHT22;26359;48.750;9.314;2023-08-06T08:44:35;15.70;99.90
40676;DHT22;26359;48.750;9.314;2023-08-06T08:47:07;15.70;99.90
40676;DHT22;26359;48.750;9.314;2023-08-06T08:49:36;15.80;99.90
40676;DHT22;26359;48.750;9.314;2023-08-06T08:52:03;15.90;99.90
40676;DHT22;26359;48.750;9.314;2023-08-06T08:54:32;15.90;99.90
40676;DHT22;26359;48.750;9.314;2023-08-06T08:56:58;16.00;99.90
40676;DHT22;26359;48.750;9.314;2023-08-06T08:59:24;15.90;99.90
40676;DHT22;26359;48.750;9.314;2023-08-06T09:01:50;16.00;99.90
40676;DHT22;26359;48.750;9.314;2023-08-06T09:04:20;15.70;99.90
40676;DHT22;26359;48.750;9.314;2023-08-06T09:06:54;15.50;99.90
40676;DHT22;26359;48.750;9.314;2023-08-06T09:09:31;15.30;99.90
40676;DHT22;26359;48.750;9.314;2023-08-06T09:12:00;15.50;99.90
40676;DHT22;26359;48.750;9.314;2023-08-06T09:14:27;15.50;99.90
40676;DHT22;26359;48.750;9.314;2023-08-06T09:16:53;15.60;99.90
40676;DHT22;26359;48.750;9.314;2023-08-06T09:19:20;15.70;99.90
40676;DHT22;26359;48.750;9.314;2023-08-06T09:21:46;15.70;99.90
40676;DHT22;26359;48.750;9.314;2023-08-06T09:24:14;15.60;99.90
40676;DHT22;26359;48.750;9.314;2023-08-06T09:26:43;15.70;99.90
40676;DHT22;26359;48.750;9.314;2023-08-06T09:29:10;15.70;99.90
40676;DHT22;26359;48.750;9.314;2023-08-06T09:31:44;15.80;99.90
40676;DHT22;26359;48.750;9.314;2023-08-06T09:34:21;15.70;99.90
40676;DHT22;26359;48.750;9.314;2023-08-06T09:36:53;15.80;99.90
40676;DHT22;26359;48.750;9.314;2023-08-06T09:39:29;15.90;99.90
40676;DHT22;26359;48.750;9.314;2023-08-06T09:41:59;15.90;99.90
40676;DHT22;26359;48.750;9.314;2023-08-06T09:44:26;16.00;99.90
40676;DHT22;26359;48.750;9.314;2023-08-06T09:46:55;16.20;99.90
40676;DHT22;26359;48.750;9.314;2023-08-06T09:49:26;16.20;99.90
40676;DHT22;26359;48.750;9.314;2023-08-06T09:51:52;16.00;99.90
40676;DHT22;26359;48.750;9.314;2023-08-06T09:54:22;16.20;99.90
40676;DHT22;26359;48.750;9.314;2023-08-06T09:56:48;16.20;99.90
40676;DHT22;26359;48.750;9.314;2023-08-06T09:59:14;16.20;99.90
40676;DHT22;26359;48.750;9.314;2023-08-06T10:01:41;16.20;99.90
40676;DHT22;26359;48.750;9.314;2023-08-06T10:04:07;16.20;99.90
40676;DHT22;26359;48.750;9.314;2023-08-06T10:06:34;16.20;99.90
40676;DHT22;26359;48.750;9.314;2023-08-06T10:09:03;16.20;99.90
40676;DHT22;26359;48.750;9.314;2023-08-06T10:11:30;16.20;99.90
40676;DHT22;26359;48.750;9.314;2023-08-06T10:14:06;16.30;99.90
40676;DHT22;26359;48.750;9.314;2023-08-06T10:16:34;16.30;99.90
40676;DHT22;26359;48.750;9.314;2023-08-06T10:19:01;16.30;99.90
40676;DHT22;26359;48.750;9.314;2023-08-06T10:21:28;16.20;99.90
40676;DHT22;26359;48.750;9.314;2023-08-06T10:23:55;16.20;99.90
40676;DHT22;26359;48.750;9.314;2023-08-06T10:26:25;16.10;99.90
40676;DHT22;26359;48.750;9.314;2023-08-06T10:28:52;15.90;99.90
40676;DHT22;26359;48.750;9.314;2023-08-06T10:31:18;16.00;99.90
40676;DHT22;26359;48.750;9.314;2023-08-06T10:33:47;15.90;99.90
40676;DHT22;26359;48.750;9.314;2023-08-06T10:36:14;15.70;99.90
40676;DHT22;26359;48.750;9.314;2023-08-06T10:38:48;15.60;99.90
40676;DHT22;26359;48.750;9.314;2023-08-06T10:41:27;15.60;99.90
40676;DHT22;26359;48.750;9.314;2023-08-06T10:44:05;15.70;99.90
40676;DHT22;26359;48.750;9.314;2023-08-06T10:46:33;15.90;99.90
40676;DHT22;26359;48.750;9.314;2023-08-06T10:48:59;16.00;99.90
40676;DHT22;26359;48.750;9.314;2023-08-06T10:51:25;15.90;99.90
40676;DHT22;26359;48.750;9.314;2023-08-06T10:53:51;15.80;99.90
40676;DHT22;26359;48.750;9.314;2023-08-06T10:56:18;15.80;99.90
40676;DHT22;26359;48.750;9.314;2023-08-06T10:58:45;15.90;99.90
40676;DHT22;26359;48.750;9.314;2023-08-06T11:01:11;16.00;99.90
40676;DHT22;26359;48.750;9.314;2023-08-06T11:03:38;15.90;99.90
40676;DHT22;26359;48.750;9.314;2023-08-06T11:06:04;16.00;99.90
40676;DHT22;26359;48.750;9.314;2023-08-06T11:08:37;15.90;99.90
40676;DHT22;26359;48.750;9.314;2023-08-06T11:11:10;15.90;99.90
40676;DHT22;26359;48.750;9.314;2023-08-06T11:13:37;15.80;99.90
40676;DHT22;26359;48.750;9.314;2023-08-06T11:16:04;15.90;99.90
40676;DHT22;26359;48.750;9.314;2023-08-06T11:18:30;15.90;99.90
40676;DHT22;26359;48.750;9.314;2023-08-06T11:20:58;15.90;99.90
40676;DHT22;26359;48.750;9.314;2023-08-06T11:23:28;15.90;99.90
40676;DHT22;26359;48.750;9.314;2023-08-06T11:25:55;15.80;99.90
40676;DHT22;26359;48.750;9.314;2023-08-06T11:28:21;15.70;99.90
40676;DHT22;26359;48.750;9.314;2023-08-06T11:30:47;15.70;99.90
40676;DHT22;26359;48.750;9.314;2023-08-06T11:33:13;15.60;99.90
40676;DHT22;26359;48.750;9.314;2023-08-06T11:35:39;15.50;99.90
40676;DHT22;26359;48.750;9.314;2023-08-06T11:38:05;15.50;99.90
40676;DHT22;26359;48.750;9.314;2023-08-06T11:40:32;15.50;99.90
40676;DHT22;26359;48.750;9.314;2023-08-06T11:42:58;15.50;99.90
40676;DHT22;26359;48.750;9.314;2023-08-06T11:45:26;15.70;99.90
40676;DHT22;26359;48.750;9.314;2023-08-06T11:47:52;15.70;99.90
40676;DHT22;26359;48.750;9.314;2023-08-06T11:50:27;15.70;99.90
40676;DHT22;26359;48.750;9.314;2023-08-06T11:52:55;15.70;99.90
40676;DHT22;26359;48.750;9.314;2023-08-06T11:55:23;15.80;99.90
40676;DHT22;26359;48.750;9.314;2023-08-06T11:57:49;15.90;99.90
40676;DHT22;26359;48.750;9.314;2023-08-06T12:00:15;15.80;99.90
40676;DHT22;26359;48.750;9.314;2023-08-06T12:02:45;15.80;99.90
40676;DHT22;26359;48.750;9.314;2023-08-06T12:05:12;15.60;99.90
40676;DHT22;26359;48.750;9.314;2023-08-06T12:07:40;15.60;99.90
40676;DHT22;26359;48.750;9.314;2023-08-06T12:10:07;15.60;99.90
40676;DHT22;26359;48.750;9.314;2023-08-06T12:12:33;15.60;99.90
40676;DHT22;26359;48.750;9.314;2023-08-06T12:14:59;15.40;99.90
40676;DHT22;26359;48.750;9.314;2023-08-06T12:17:25;15.50;99.90
40676;DHT22;26359;48.750;9.314;2023-08-06T12:19:51;15.20;99.90
40676;DHT22;26359;48.750;9.314;2023-08-06T12:22:17;15.10;99.90
40676;DHT22;26359;48.750;9.314;2023-08-06T12:24:43;15.10;99.90
40676;DHT22;26359;48.750;9.314;2023-08-06T12:27:09;15.10;99.90
40676;DHT22;26359;48.750;9.314;2023-08-06T12:29:35;15.00;99.90
40676;DHT22;26359;48.750;9.314;2023-08-06T12:32:03;15.10;99.90
40676;DHT22;26359;48.750;9.314;2023-08-06T12:34:29;15.10;99.90
40676;DHT22;26359;48.750;9.314;2023-08-06T12:36:54;15.10;99.90
40676;DHT22;26359;48.750;9.314;2023-08-06T12:39:20;15.30;99.90
40676;DHT22;26359;48.750;9.314;2023-08-06T12:41:45;15.20;99.90
40676;DHT22;26359;48.750;9.314;2023-08-06T12:44:12;15.10;99.90
40676;DHT22;26359;48.750;9.314;2023-08-06T12:46:37;15.30;99.90
40676;DHT22;26359;48.750;9.314;2023-08-06T12:49:03;15.40;99.90
40676;DHT22;26359;48.750;9.314;2023-08-06T12:51:29;15.30;99.90
40676;DHT22;26359;48.750;9.314;2023-08-06T12:53:54;15.40;99.90
40676;DHT22;26359;48.750;9.314;2023-08-06T12:56:20;15.60;99.90
40676;DHT22;26359;48.750;9.314;2023-08-06T12:58:45;15.60;99.90
40676;DHT22;26359;48.750;9.314;2023-08-06T13:01:11;15.70;99.90
40676;DHT22;26359;48.750;9.314;2023-08-06T13:03:36;15.80;99.90
40676;DHT22;26359;48.750;9.314;2023-08-06T13:06:02;15.70;99.90
40676;DHT22;26359;48.750;9.314;2023-08-06T13:08:27;15.90;99.90
40676;DHT22;26359;48.750;9.314;2023-08-06T13:10:53;16.00;99.90
40676;DHT22;26359;48.750;9.314;2023-08-06T13:13:18;15.90;99.90
40676;DHT22;26359;48.750;9.314;2023-08-06T13:15:44;15.90;99.90
40676;DHT22;26359;48.750;9.314;2023-08-06T13:18:09;16.00;99.90
40676;DHT22;26359;48.750;9.314;2023-08-06T13:20:38;16.10;99.90
40676;DHT22;26359;48.750;9.314;2023-08-06T13:23:04;16.20;99.90
40676;DHT22;26359;48.750;9.314;2023-08-06T13:25:30;16.30;99.90
40676;DHT22;26359;48.750;9.314;2023-08-06T13:27:55;16.40;99.90
40676;DHT22;26359;48.750;9.314;2023-08-06T13:30:21;16.50;99.90
40676;DHT22;26359;48.750;9.314;2023-08-06T13:32:48;16.30;99.90
40676;DHT22;26359;48.750;9.314;2023-08-06T13:35:14;16.50;99.90
40676;DHT22;26359;48.750;9.314;2023-08-06T13:37:39;16.50;99.90
40676;DHT22;26359;48.750;9.314;2023-08-06T13:40:05;16.60;99.90
40676;DHT22;26359;48.750;9.314;2023-08-06T13:42:32;16.50;99.90
40676;DHT22;26359;48.750;9.314;2023-08-06T13:44:57;16.40;99.90
40676;DHT22;26359;48.750;9.314;2023-08-06T13:47:28;16.30;99.90
40676;DHT22;26359;48.750;9.314;2023-08-06T13:49:53;16.30;99.90
40676;DHT22;26359;48.750;9.314;2023-08-06T13:52:19;16.40;99.90
40676;DHT22;26359;48.750;9.314;2023-08-06T13:54:45;16.30;99.90
40676;DHT22;26359;48.750;9.314;2023-08-06T13:57:10;16.40;99.90
40676;DHT22;26359;48.750;9.314;2023-08-06T13:59:36;16.30;99.90
40676;DHT22;26359;48.750;9.314;2023-08-06T14:02:01;16.20;99.90
40676;DHT22;26359;48.750;9.314;2023-08-06T14:04:27;16.20;99.90
40676;DHT22;26359;48.750;9.314;2023-08-06T14:06:52;16.20;99.90
40676;DHT22;26359;48.750;9.314;2023-08-06T14:09:18;16.30;99.90
40676;DHT22;26359;48.750;9.314;2023-08-06T14:11:44;16.20;99.90
40676;DHT22;26359;48.750;9.314;2023-08-06T14:14:10;16.20;99.90
40676;DHT22;26359;48.750;9.314;2023-08-06T14:16:36;16.00;99.90
40676;DHT22;26359;48.750;9.314;2023-08-06T14:19:02;16.20;99.90
40676;DHT22;26359;48.750;9.314;2023-08-06T14:21:27;16.20;99.90
40676;DHT22;26359;48.750;9.314;2023-08-06T14:23:53;16.20;99.90
40676;DHT22;26359;48.750;9.314;2023-08-06T14:26:18;16.20;99.90
40676;DHT22;26359;48.750;9.314;2023-08-06T14:28:44;16.10;99.90
40676;DHT22;26359;48.750;9.314;2023-08-06T14:31:09;16.20;99.90
40676;DHT22;26359;48.750;9.314;2023-08-06T14:33:35;16.30;99.90
40676;DHT22;26359;48.750;9.314;2023-08-06T14:36:01;16.30;99.90
40676;DHT22;26359;48.750;9.314;2023-08-06T14:38:27;16.40;99.90
40676;DHT22;26359;48.750;9.314;2023-08-06T14:40:52;16.50;99.90
40676;DHT22;26359;48.750;9.314;2023-08-06T14:43:18;16.40;99.90
40676;DHT22;26359;48.750;9.314;2023-08-06T14:45:45;16.40;99.90
40676;DHT22;26359;48.750;9.314;2023-08-06T14:48:10;16.40;99.90
40676;DHT22;26359;48.750;9.314;2023-08-06T14:50:36;16.40;99.90
40676;DHT22;26359;48.750;9.314;2023-08-06T14:53:03;16.10;99.90
40676;DHT22;26359;48.750;9.314;2023-08-06T14:55:29;16.00;99.90
40676;DHT22;26359;48.750;9.314;2023-08-06T14:57:55;15.90;99.90
40676;DHT22;26359;48.750;9.314;2023-08-06T15:00:21;15.90;99.90
40676;DHT22;26359;48.750;9.314;2023-08-06T15:02:46;15.60;99.90
40676;DHT22;26359;48.750;9.314;2023-08-06T15:05:12;15.60;99.90
40676;DHT22;26359;48.750;9.314;2023-08-06T15:07:37;15.70;99.90
40676;DHT22;26359;48.750;9.314;2023-08-06T15:10:05;15.80;99.90
40676;DHT22;26359;48.750;9.314;2023-08-06T15:12:31;15.80;99.90
40676;DHT22;26359;48.750;9.314;2023-08-06T15:14:58;15.70;99.90
40676;DHT22;26359;48.750;9.314;2023-08-06T15:17:26;15.60;99.90
40676;DHT22;26359;48.750;9.314;2023-08-06T15:19:52;15.50;99.90
40676;DHT22;26359;48.750;9.314;2023-08-06T15:22:17;15.50;99.90
40676;DHT22;26359;48.750;9.314;2023-08-06T15:24:43;15.70;99.90